sensor_id;sensor_type;location;lat;lon;timestamp;pressure;altitude;pressure_sealevel;temperature;humidity
54924;BME280;40825;52.270;20.984;2022-12-05T00:00:26;101513.84;;;0.46;88.47
54924;BME280;40825;52.270;20.984;2022-12-05T00:03:05;101510.10;;;0.45;88.56
54924;BME280;40825;52.270;20.984;2022-12-05T00:05:30;101509.08;;;0.44;88.80
54924;BME280;40825;52.270;20.984;2022-12-05T00:07:55;101514.69;;;0.44;88.52
54924;BME280;40825;52.270;20.984;2022-12-05T00:10:21;101512.40;;;0.44;88.24
54924;BME280;40825;52.270;20.984;2022-12-05T00:12:46;101505.36;;;0.42;88.39
54924;BME280;40825;52.270;20.984;2022-12-05T00:15:13;101508.23;;;0.41;88.36
54924;BME280;40825;52.270;20.984;2022-12-05T00:17:39;101509.77;;;0.36;88.51
54924;BME280;40825;52.270;20.984;2022-12-05T00:20:06;101507.73;;;0.35;88.49
54924;BME280;40825;52.270;20.984;2022-12-05T00:22:35;101506.10;;;0.36;88.62
54924;BME280;40825;52.270;20.984;2022-12-05T00:25:01;101509.71;;;0.37;88.54
54924;BME280;40825;52.270;20.984;2022-12-05T00:27:26;101510.94;;;0.34;88.51
54924;BME280;40825;52.270;20.984;2022-12-05T00:29:51;101514.95;;;0.29;88.61
54924;BME280;40825;52.270;20.984;2022-12-05T00:32:17;101517.73;;;0.23;88.56
54924;BME280;40825;52.270;20.984;2022-12-05T00:34:42;101522.16;;;0.17;88.63
54924;BME280;40825;52.270;20.984;2022-12-05T00:37:08;101516.02;;;0.17;88.64
54924;BME280;40825;52.270;20.984;2022-12-05T00:39:33;101511.64;;;0.14;88.73
54924;BME280;40825;52.270;20.984;2022-12-05T00:41:59;101512.83;;;0.15;88.65
54924;BME280;40825;52.270;20.984;2022-12-05T00:44:24;101513.95;;;0.13;88.58
54924;BME280;40825;52.270;20.984;2022-12-05T00:46:49;101517.62;;;0.08;88.76
54924;BME280;40825;52.270;20.984;2022-12-05T00:49:15;101519.30;;;0.06;88.83
54924;BME280;40825;52.270;20.984;2022-12-05T00:51:42;101520.20;;;0.06;88.76
54924;BME280;40825;52.270;20.984;2022-12-05T00:54:11;101518.52;;;0.05;88.82
54924;BME280;40825;52.270;20.984;2022-12-05T00:56:37;101523.25;;;0.04;88.97
54924;BME280;40825;52.270;20.984;2022-12-05T00:59:03;101524.77;;;0.03;89.10
54924;BME280;40825;52.270;20.984;2022-12-05T01:01:35;101516.58;;;0.02;89.05
54924;BME280;40825;52.270;20.984;2022-12-05T01:04:08;101518.14;;;0.02;89.10
54924;BME280;40825;52.270;20.984;2022-12-05T01:06:34;101514.63;;;0.02;88.98
54924;BME280;40825;52.270;20.984;2022-12-05T01:09:02;101511.02;;;0.02;89.08
54924;BME280;40825;52.270;20.984;2022-12-05T01:11:28;101513.41;;;0.02;88.83
54924;BME280;40825;52.270;20.984;2022-12-05T01:13:54;101508.27;;;0.03;88.99
54924;BME280;40825;52.270;20.984;2022-12-05T01:16:24;101508.73;;;0.04;89.04
54924;BME280;40825;52.270;20.984;2022-12-05T01:18:51;101503.11;;;0.07;88.91
54924;BME280;40825;52.270;20.984;2022-12-05T01:21:17;101493.38;;;0.09;88.99
54924;BME280;40825;52.270;20.984;2022-12-05T01:23:42;101496.82;;;0.10;88.99
54924;BME280;40825;52.270;20.984;2022-12-05T01:26:10;101500.40;;;0.09;89.16
54924;BME280;40825;52.270;20.984;2022-12-05T01:28:37;101498.52;;;0.08;89.09
54924;BME280;40825;52.270;20.984;2022-12-05T01:31:06;101499.73;;;0.06;88.92
54924;BME280;40825;52.270;20.984;2022-12-05T01:33:32;101490.63;;;0.06;88.93
54924;BME280;40825;52.270;20.984;2022-12-05T01:35:58;101488.09;;;0.04;89.02
54924;BME280;40825;52.270;20.984;2022-12-05T01:38:25;101482.61;;;0.02;89.06
54924;BME280;40825;52.270;20.984;2022-12-05T01:41:02;101484.19;;;0.02;89.10
54924;BME280;40825;52.270;20.984;2022-12-05T01:43:28;101479.15;;;0.01;89.07
54924;BME280;40825;52.270;20.984;2022-12-05T01:45:53;101482.79;;;0.02;89.05
54924;BME280;40825;52.270;20.984;2022-12-05T01:48:25;101479.35;;;0.01;88.95
54924;BME280;40825;52.270;20.984;2022-12-05T01:50:52;101476.75;;;0.01;89.01
54924;BME280;40825;52.270;20.984;2022-12-05T01:53:18;101471.00;;;0.03;89.02
54924;BME280;40825;52.270;20.984;2022-12-05T01:55:46;101480.54;;;0.05;88.99
54924;BME280;40825;52.270;20.984;2022-12-05T01:58:13;101484.53;;;0.05;88.99
54924;BME280;40825;52.270;20.984;2022-12-05T02:00:39;101481.37;;;0.06;88.96
54924;BME280;40825;52.270;20.984;2022-12-05T02:03:10;101476.48;;;0.02;88.94
54924;BME280;40825;52.270;20.984;2022-12-05T02:05:38;101472.30;;;-0.01;88.95
54924;BME280;40825;52.270;20.984;2022-12-05T02:08:07;101474.48;;;-0.02;88.92
54924;BME280;40825;52.270;20.984;2022-12-05T02:10:36;101472.85;;;-0.07;89.09
54924;BME280;40825;52.270;20.984;2022-12-05T02:16:03;101465.64;;;-0.09;89.07
54924;BME280;40825;52.270;20.984;2022-12-05T02:18:46;101462.91;;;-0.08;89.03
54924;BME280;40825;52.270;20.984;2022-12-05T02:27:38;101452.51;;;-0.09;89.16
54924;BME280;40825;52.270;20.984;2022-12-05T02:34:58;101449.71;;;-0.10;89.18
54924;BME280;40825;52.270;20.984;2022-12-05T02:37:48;101448.17;;;-0.07;89.11
54924;BME280;40825;52.270;20.984;2022-12-05T02:40:31;101447.27;;;-0.07;89.07
54924;BME280;40825;52.270;20.984;2022-12-05T02:43:02;101447.55;;;-0.08;89.05
54924;BME280;40825;52.270;20.984;2022-12-05T02:45:31;101446.88;;;-0.12;88.97
54924;BME280;40825;52.270;20.984;2022-12-05T02:47:58;101443.29;;;-0.13;89.09
54924;BME280;40825;52.270;20.984;2022-12-05T02:50:30;101435.95;;;-0.13;89.06
54924;BME280;40825;52.270;20.984;2022-12-05T02:53:00;101434.69;;;-0.12;89.09
54924;BME280;40825;52.270;20.984;2022-12-05T02:55:29;101435.33;;;-0.12;89.06
54924;BME280;40825;52.270;20.984;2022-12-05T02:57:58;101434.21;;;-0.14;89.04
54924;BME280;40825;52.270;20.984;2022-12-05T03:00:26;101425.09;;;-0.13;88.89
54924;BME280;40825;52.270;20.984;2022-12-05T03:02:55;101423.56;;;-0.14;88.86
54924;BME280;40825;52.270;20.984;2022-12-05T03:05:42;101415.13;;;-0.16;88.96
54924;BME280;40825;52.270;20.984;2022-12-05T03:08:16;101407.17;;;-0.18;88.98
54924;BME280;40825;52.270;20.984;2022-12-05T03:10:46;101404.70;;;-0.20;88.91
54924;BME280;40825;52.270;20.984;2022-12-05T03:13:20;101406.84;;;-0.21;88.96
54924;BME280;40825;52.270;20.984;2022-12-05T03:15:52;101403.23;;;-0.22;89.10
54924;BME280;40825;52.270;20.984;2022-12-05T03:18:26;101398.81;;;-0.21;88.93
54924;BME280;40825;52.270;20.984;2022-12-05T03:24:04;101400.44;;;-0.19;88.99
54924;BME280;40825;52.270;20.984;2022-12-05T03:26:49;101394.96;;;-0.21;88.91
54924;BME280;40825;52.270;20.984;2022-12-05T03:37:21;101410.83;;;-0.26;88.99
54924;BME280;40825;52.270;20.984;2022-12-05T03:39:57;101417.21;;;-0.27;89.09
54924;BME280;40825;52.270;20.984;2022-12-05T03:42:31;101423.69;;;-0.27;89.15
54924;BME280;40825;52.270;20.984;2022-12-05T03:45:05;101433.52;;;-0.25;89.09
54924;BME280;40825;52.270;20.984;2022-12-05T03:48:18;101440.52;;;-0.22;89.01
54924;BME280;40825;52.270;20.984;2022-12-05T03:50:48;101442.55;;;-0.21;88.98
54924;BME280;40825;52.270;20.984;2022-12-05T03:53:23;101446.98;;;-0.22;88.92
54924;BME280;40825;52.270;20.984;2022-12-05T03:55:58;101443.54;;;-0.23;88.99
54924;BME280;40825;52.270;20.984;2022-12-05T03:58:30;101440.94;;;-0.23;88.97
54924;BME280;40825;52.270;20.984;2022-12-05T04:00:58;101437.36;;;-0.22;88.97
54924;BME280;40825;52.270;20.984;2022-12-05T04:03:31;101438.13;;;-0.20;88.99
54924;BME280;40825;52.270;20.984;2022-12-05T04:06:14;101435.73;;;-0.18;88.99
54924;BME280;40825;52.270;20.984;2022-12-05T04:08:47;101440.51;;;-0.16;89.01
54924;BME280;40825;52.270;20.984;2022-12-05T04:11:18;101434.36;;;-0.16;88.99
54924;BME280;40825;52.270;20.984;2022-12-05T04:13:52;101428.29;;;-0.17;88.90
54924;BME280;40825;52.270;20.984;2022-12-05T04:16:24;101421.58;;;-0.16;88.84
54924;BME280;40825;52.270;20.984;2022-12-05T04:19:16;101419.45;;;-0.15;88.78
54924;BME280;40825;52.270;20.984;2022-12-05T04:21:47;101418.27;;;-0.16;88.68
54924;BME280;40825;52.270;20.984;2022-12-05T04:24:18;101417.23;;;-0.19;88.68
54924;BME280;40825;52.270;20.984;2022-12-05T04:27:15;101416.94;;;-0.20;88.64
54924;BME280;40825;52.270;20.984;2022-12-05T04:30:16;101412.98;;;-0.21;88.61
54924;BME280;40825;52.270;20.984;2022-12-05T04:35:23;101401.61;;;-0.21;88.70
54924;BME280;40825;52.270;20.984;2022-12-05T04:37:53;101402.31;;;-0.21;88.66
54924;BME280;40825;52.270;20.984;2022-12-05T04:40:28;101404.45;;;-0.22;88.60
54924;BME280;40825;52.270;20.984;2022-12-05T04:42:57;101403.73;;;-0.27;88.52
54924;BME280;40825;52.270;20.984;2022-12-05T04:45:25;101399.52;;;-0.27;88.66
54924;BME280;40825;52.270;20.984;2022-12-05T04:47:56;101408.59;;;-0.30;88.63
54924;BME280;40825;52.270;20.984;2022-12-05T04:50:26;101404.05;;;-0.30;88.62
54924;BME280;40825;52.270;20.984;2022-12-05T04:52:56;101404.20;;;-0.29;88.63
54924;BME280;40825;52.270;20.984;2022-12-05T04:55:24;101403.95;;;-0.28;88.66
54924;BME280;40825;52.270;20.984;2022-12-05T04:58:10;101397.91;;;-0.29;88.57
54924;BME280;40825;52.270;20.984;2022-12-05T05:00:55;101396.48;;;-0.29;88.59
54924;BME280;40825;52.270;20.984;2022-12-05T05:03:42;101390.63;;;-0.27;88.61
54924;BME280;40825;52.270;20.984;2022-12-05T05:06:10;101393.46;;;-0.25;88.62
54924;BME280;40825;52.270;20.984;2022-12-05T05:08:36;101395.36;;;-0.25;88.43
54924;BME280;40825;52.270;20.984;2022-12-05T05:11:26;101403.05;;;-0.24;88.41
54924;BME280;40825;52.270;20.984;2022-12-05T05:13:53;101402.64;;;-0.26;88.30
54924;BME280;40825;52.270;20.984;2022-12-05T05:16:33;101406.14;;;-0.26;88.39
54924;BME280;40825;52.270;20.984;2022-12-05T05:18:59;101408.68;;;-0.25;88.29
54924;BME280;40825;52.270;20.984;2022-12-05T05:21:29;101409.60;;;-0.26;88.33
54924;BME280;40825;52.270;20.984;2022-12-05T05:23:55;101412.29;;;-0.24;88.30
54924;BME280;40825;52.270;20.984;2022-12-05T05:26:22;101414.45;;;-0.25;88.11
54924;BME280;40825;52.270;20.984;2022-12-05T05:28:48;101413.14;;;-0.23;88.28
54924;BME280;40825;52.270;20.984;2022-12-05T05:31:14;101422.60;;;-0.24;88.03
54924;BME280;40825;52.270;20.984;2022-12-05T05:33:40;101419.63;;;-0.24;88.11
54924;BME280;40825;52.270;20.984;2022-12-05T05:36:10;101422.27;;;-0.24;87.92
54924;BME280;40825;52.270;20.984;2022-12-05T05:38:45;101420.66;;;-0.24;87.98
54924;BME280;40825;52.270;20.984;2022-12-05T05:41:18;101423.90;;;-0.22;88.08
54924;BME280;40825;52.270;20.984;2022-12-05T05:43:45;101427.14;;;-0.21;88.13
54924;BME280;40825;52.270;20.984;2022-12-05T05:46:12;101427.31;;;-0.21;88.02
54924;BME280;40825;52.270;20.984;2022-12-05T05:48:38;101425.67;;;-0.19;88.21
54924;BME280;40825;52.270;20.984;2022-12-05T05:51:05;101425.27;;;-0.19;88.01
54924;BME280;40825;52.270;20.984;2022-12-05T05:53:31;101428.66;;;-0.17;88.02
54924;BME280;40825;52.270;20.984;2022-12-05T05:56:04;101428.41;;;-0.16;87.97
54924;BME280;40825;52.270;20.984;2022-12-05T05:58:30;101426.36;;;-0.17;87.70
54924;BME280;40825;52.270;20.984;2022-12-05T06:01:05;101423.94;;;-0.20;87.65
54924;BME280;40825;52.270;20.984;2022-12-05T06:03:31;101420.48;;;-0.21;87.72
54924;BME280;40825;52.270;20.984;2022-12-05T06:06:01;101421.02;;;-0.21;87.76
54924;BME280;40825;52.270;20.984;2022-12-05T06:08:29;101421.55;;;-0.21;87.74
54924;BME280;40825;52.270;20.984;2022-12-05T06:10:54;101424.05;;;-0.22;87.65
54924;BME280;40825;52.270;20.984;2022-12-05T06:13:20;101421.96;;;-0.22;87.88
54924;BME280;40825;52.270;20.984;2022-12-05T06:15:46;101420.65;;;-0.20;87.92
54924;BME280;40825;52.270;20.984;2022-12-05T06:18:11;101416.52;;;-0.19;87.84
54924;BME280;40825;52.270;20.984;2022-12-05T06:20:36;101409.98;;;-0.18;87.82
54924;BME280;40825;52.270;20.984;2022-12-05T06:23:02;101409.02;;;-0.16;87.98
54924;BME280;40825;52.270;20.984;2022-12-05T06:25:27;101414.63;;;-0.14;87.92
54924;BME280;40825;52.270;20.984;2022-12-05T06:27:53;101414.35;;;-0.12;87.80
54924;BME280;40825;52.270;20.984;2022-12-05T06:30:18;101421.34;;;-0.12;87.67
54924;BME280;40825;52.270;20.984;2022-12-05T06:32:44;101412.83;;;-0.13;87.74
54924;BME280;40825;52.270;20.984;2022-12-05T06:35:09;101411.04;;;-0.12;87.81
54924;BME280;40825;52.270;20.984;2022-12-05T06:37:43;101410.36;;;-0.13;87.81
54924;BME280;40825;52.270;20.984;2022-12-05T06:40:10;101407.61;;;-0.11;87.87
54924;BME280;40825;52.270;20.984;2022-12-05T06:42:36;101410.21;;;-0.07;87.88
54924;BME280;40825;52.270;20.984;2022-12-05T06:45:03;101413.95;;;-0.06;87.72
54924;BME280;40825;52.270;20.984;2022-12-05T06:47:29;101410.67;;;-0.07;87.75
54924;BME280;40825;52.270;20.984;2022-12-05T06:49:54;101411.60;;;-0.07;87.68
54924;BME280;40825;52.270;20.984;2022-12-05T06:52:19;101417.47;;;-0.09;87.75
54924;BME280;40825;52.270;20.984;2022-12-05T06:54:45;101424.73;;;-0.10;87.77
54924;BME280;40825;52.270;20.984;2022-12-05T06:57:11;101425.56;;;-0.09;87.83
54924;BME280;40825;52.270;20.984;2022-12-05T06:59:37;101418.02;;;-0.09;87.85
54924;BME280;40825;52.270;20.984;2022-12-05T07:02:02;101419.79;;;-0.07;87.84
54924;BME280;40825;52.270;20.984;2022-12-05T07:04:31;101418.91;;;-0.04;87.84
54924;BME280;40825;52.270;20.984;2022-12-05T07:06:56;101415.98;;;-0.04;87.64
54924;BME280;40825;52.270;20.984;2022-12-05T07:09:24;101416.41;;;-0.03;87.79
54924;BME280;40825;52.270;20.984;2022-12-05T07:12:15;101419.25;;;-0.01;87.83
54924;BME280;40825;52.270;20.984;2022-12-05T07:14:42;101420.29;;;0.03;87.77
54924;BME280;40825;52.270;20.984;2022-12-05T07:17:08;101419.10;;;0.05;87.80
54924;BME280;40825;52.270;20.984;2022-12-05T07:19:34;101416.20;;;0.04;87.57
54924;BME280;40825;52.270;20.984;2022-12-05T07:21:59;101414.84;;;0.06;87.73
54924;BME280;40825;52.270;20.984;2022-12-05T07:24:25;101409.21;;;0.09;87.79
54924;BME280;40825;52.270;20.984;2022-12-05T07:26:51;101407.41;;;0.10;87.60
54924;BME280;40825;52.270;20.984;2022-12-05T07:29:16;101410.29;;;0.08;87.37
54924;BME280;40825;52.270;20.984;2022-12-05T07:31:41;101411.75;;;0.05;87.36
54924;BME280;40825;52.270;20.984;2022-12-05T07:34:07;101408.24;;;0.05;87.55
54924;BME280;40825;52.270;20.984;2022-12-05T07:36:33;101406.60;;;0.06;87.54
54924;BME280;40825;52.270;20.984;2022-12-05T07:38:58;101402.67;;;0.07;87.65
54924;BME280;40825;52.270;20.984;2022-12-05T07:41:26;101405.73;;;0.11;87.71
54924;BME280;40825;52.270;20.984;2022-12-05T07:43:53;101405.94;;;0.16;87.65
54924;BME280;40825;52.270;20.984;2022-12-05T07:46:19;101408.08;;;0.19;87.35
54924;BME280;40825;52.270;20.984;2022-12-05T07:48:46;101402.46;;;0.16;87.33
54924;BME280;40825;52.270;20.984;2022-12-05T07:51:12;101402.98;;;0.16;87.44
54924;BME280;40825;52.270;20.984;2022-12-05T07:53:38;101405.75;;;0.19;87.55
54924;BME280;40825;52.270;20.984;2022-12-05T07:56:07;101405.38;;;0.22;87.53
54924;BME280;40825;52.270;20.984;2022-12-05T07:58:34;101399.98;;;0.25;87.52
54924;BME280;40825;52.270;20.984;2022-12-05T08:01:14;101396.77;;;0.29;87.65
54924;BME280;40825;52.270;20.984;2022-12-05T08:03:41;101392.90;;;0.32;87.41
54924;BME280;40825;52.270;20.984;2022-12-05T08:06:13;101392.38;;;0.34;87.57
54924;BME280;40825;52.270;20.984;2022-12-05T08:08:39;101395.54;;;0.36;87.28
54924;BME280;40825;52.270;20.984;2022-12-05T08:11:07;101392.94;;;0.36;87.08
54924;BME280;40825;52.270;20.984;2022-12-05T08:13:33;101389.63;;;0.34;86.91
54924;BME280;40825;52.270;20.984;2022-12-05T08:16:07;101388.09;;;0.33;87.04
54924;BME280;40825;52.270;20.984;2022-12-05T08:18:33;101385.83;;;0.35;87.24
54924;BME280;40825;52.270;20.984;2022-12-05T08:21:08;101380.64;;;0.34;86.96
54924;BME280;40825;52.270;20.984;2022-12-05T08:23:35;101387.15;;;0.34;87.04
54924;BME280;40825;52.270;20.984;2022-12-05T08:26:13;101393.33;;;0.33;86.92
54924;BME280;40825;52.270;20.984;2022-12-05T08:28:39;101394.40;;;0.33;86.98
54924;BME280;40825;52.270;20.984;2022-12-05T08:31:25;101398.05;;;0.31;86.93
54924;BME280;40825;52.270;20.984;2022-12-05T08:33:52;101393.30;;;0.31;87.05
54924;BME280;40825;52.270;20.984;2022-12-05T08:36:18;101393.91;;;0.35;87.19
54924;BME280;40825;52.270;20.984;2022-12-05T08:38:44;101396.05;;;0.39;87.08
54924;BME280;40825;52.270;20.984;2022-12-05T08:41:13;101393.63;;;0.42;87.01
54924;BME280;40825;52.270;20.984;2022-12-05T08:43:39;101394.50;;;0.42;86.79
54924;BME280;40825;52.270;20.984;2022-12-05T08:46:05;101391.64;;;0.46;87.08
54924;BME280;40825;52.270;20.984;2022-12-05T08:48:31;101391.52;;;0.50;87.16
54924;BME280;40825;52.270;20.984;2022-12-05T08:50:58;101398.14;;;0.57;87.17
54924;BME280;40825;52.270;20.984;2022-12-05T08:53:25;101400.07;;;0.62;86.73
54924;BME280;40825;52.270;20.984;2022-12-05T08:55:50;101395.48;;;0.62;86.42
54924;BME280;40825;52.270;20.984;2022-12-05T08:58:16;101396.77;;;0.62;86.55
54924;BME280;40825;52.270;20.984;2022-12-05T09:00:41;101394.46;;;0.62;86.52
54924;BME280;40825;52.270;20.984;2022-12-05T09:03:11;101388.80;;;0.60;86.24
54924;BME280;40825;52.270;20.984;2022-12-05T09:05:37;101389.60;;;0.58;86.60
54924;BME280;40825;52.270;20.984;2022-12-05T09:08:03;101383.56;;;0.54;86.28
54924;BME280;40825;52.270;20.984;2022-12-05T09:10:29;101376.40;;;0.54;86.58
54924;BME280;40825;52.270;20.984;2022-12-05T09:12:55;101381.15;;;0.53;86.31
54924;BME280;40825;52.270;20.984;2022-12-05T09:15:21;101373.09;;;0.53;86.50
54924;BME280;40825;52.270;20.984;2022-12-05T09:17:46;101372.61;;;0.56;86.54
54924;BME280;40825;52.270;20.984;2022-12-05T09:20:12;101371.20;;;0.56;86.27
54924;BME280;40825;52.270;20.984;2022-12-05T09:22:39;101364.63;;;0.55;86.31
54924;BME280;40825;52.270;20.984;2022-12-05T09:25:06;101362.56;;;0.54;86.27
54924;BME280;40825;52.270;20.984;2022-12-05T09:27:32;101362.11;;;0.52;86.32
54924;BME280;40825;52.270;20.984;2022-12-05T09:29:57;101362.31;;;0.55;86.44
54924;BME280;40825;52.270;20.984;2022-12-05T09:32:23;101357.02;;;0.58;86.49
54924;BME280;40825;52.270;20.984;2022-12-05T09:34:48;101351.73;;;0.62;86.44
54924;BME280;40825;52.270;20.984;2022-12-05T09:37:14;101348.67;;;0.65;86.49
54924;BME280;40825;52.270;20.984;2022-12-05T09:39:42;101337.21;;;0.69;86.26
54924;BME280;40825;52.270;20.984;2022-12-05T09:47:50;101331.90;;;0.86;86.53
54924;BME280;40825;52.270;20.984;2022-12-05T09:50:22;101331.06;;;0.93;86.47
54924;BME280;40825;52.270;20.984;2022-12-05T09:53:01;101326.98;;;0.96;86.36
54924;BME280;40825;52.270;20.984;2022-12-05T09:55:47;101322.85;;;0.98;86.01
54924;BME280;40825;52.270;20.984;2022-12-05T10:01:22;101327.42;;;1.11;85.83
54924;BME280;40825;52.270;20.984;2022-12-05T10:09:36;101323.04;;;1.08;85.21
54924;BME280;40825;52.270;20.984;2022-12-05T10:14:52;101325.57;;;1.12;85.94
54924;BME280;40825;52.270;20.984;2022-12-05T10:17:33;101326.73;;;1.10;85.36
54924;BME280;40825;52.270;20.984;2022-12-05T10:20:03;101320.85;;;1.04;85.10
54924;BME280;40825;52.270;20.984;2022-12-05T10:25:09;101313.73;;;0.95;85.51
54924;BME280;40825;52.270;20.984;2022-12-05T10:27:47;101310.26;;;0.97;85.57
54924;BME280;40825;52.270;20.984;2022-12-05T10:30:16;101311.71;;;0.97;85.50
54924;BME280;40825;52.270;20.984;2022-12-05T10:32:58;101305.35;;;0.97;85.42
54924;BME280;40825;52.270;20.984;2022-12-05T10:35:26;101308.74;;;0.91;85.23
54924;BME280;40825;52.270;20.984;2022-12-05T10:37:56;101309.03;;;0.84;85.29
54924;BME280;40825;52.270;20.984;2022-12-05T10:40:25;101303.82;;;0.78;85.49
54924;BME280;40825;52.270;20.984;2022-12-05T10:42:52;101298.98;;;0.77;85.59
54924;BME280;40825;52.270;20.984;2022-12-05T10:45:20;101302.64;;;0.78;85.67
54924;BME280;40825;52.270;20.984;2022-12-05T10:47:47;101294.01;;;0.78;85.68
54924;BME280;40825;52.270;20.984;2022-12-05T10:50:30;101287.41;;;0.80;85.71
54924;BME280;40825;52.270;20.984;2022-12-05T10:52:58;101286.54;;;0.83;85.85
54924;BME280;40825;52.270;20.984;2022-12-05T10:55:29;101289.40;;;0.87;85.64
54924;BME280;40825;52.270;20.984;2022-12-05T10:58:16;101295.73;;;0.90;85.67
54924;BME280;40825;52.270;20.984;2022-12-05T11:00:45;101289.98;;;0.92;85.75
54924;BME280;40825;52.270;20.984;2022-12-05T11:03:35;101291.70;;;0.94;85.75
54924;BME280;40825;52.270;20.984;2022-12-05T11:06:17;101294.05;;;0.93;85.65
54924;BME280;40825;52.270;20.984;2022-12-05T11:08:51;101290.14;;;0.89;85.62
54924;BME280;40825;52.270;20.984;2022-12-05T11:11:21;101287.95;;;0.88;85.69
54924;BME280;40825;52.270;20.984;2022-12-05T11:13:57;101280.31;;;0.87;85.73
54924;BME280;40825;52.270;20.984;2022-12-05T11:16:26;101277.55;;;0.86;85.68
54924;BME280;40825;52.270;20.984;2022-12-05T11:18:53;101267.31;;;0.87;85.85
54924;BME280;40825;52.270;20.984;2022-12-05T11:21:18;101262.33;;;0.86;85.79
54924;BME280;40825;52.270;20.984;2022-12-05T11:23:46;101262.95;;;0.89;85.80
54924;BME280;40825;52.270;20.984;2022-12-05T11:28:58;101250.24;;;0.93;85.74
54924;BME280;40825;52.270;20.984;2022-12-05T11:31:29;101247.66;;;0.95;85.85
54924;BME280;40825;52.270;20.984;2022-12-05T11:34:21;101244.69;;;0.98;85.91
54924;BME280;40825;52.270;20.984;2022-12-05T11:37:08;101244.84;;;1.01;85.81
54924;BME280;40825;52.270;20.984;2022-12-05T11:39:35;101244.79;;;1.01;85.80
54924;BME280;40825;52.270;20.984;2022-12-05T11:42:28;101249.53;;;0.99;85.75
54924;BME280;40825;52.270;20.984;2022-12-05T11:46:05;101241.05;;;0.94;85.94
54924;BME280;40825;52.270;20.984;2022-12-05T11:51:25;101223.96;;;0.91;86.07
54924;BME280;40825;52.270;20.984;2022-12-05T11:57:01;101230.77;;;0.93;86.04
54924;BME280;40825;52.270;20.984;2022-12-05T12:13:54;101228.71;;;1.11;86.05
54924;BME280;40825;52.270;20.984;2022-12-05T12:27:53;101217.20;;;0.97;86.31
54924;BME280;40825;52.270;20.984;2022-12-05T12:30:29;101215.52;;;0.96;86.39
54924;BME280;40825;52.270;20.984;2022-12-05T12:33:10;101215.73;;;0.96;86.43
54924;BME280;40825;52.270;20.984;2022-12-05T12:36:10;101209.93;;;0.96;86.50
54924;BME280;40825;52.270;20.984;2022-12-05T12:41:40;101204.70;;;1.00;86.52
54924;BME280;40825;52.270;20.984;2022-12-05T12:47:22;101206.05;;;1.06;86.38
54924;BME280;40825;52.270;20.984;2022-12-05T12:52:57;101203.27;;;1.06;86.45
54924;BME280;40825;52.270;20.984;2022-12-05T12:59:24;101194.42;;;1.07;86.48
54924;BME280;40825;52.270;20.984;2022-12-05T13:02:10;101199.67;;;1.07;86.54
54924;BME280;40825;52.270;20.984;2022-12-05T13:04:51;101199.79;;;1.08;86.52
54924;BME280;40825;52.270;20.984;2022-12-05T13:07:23;101199.36;;;1.09;86.56
54924;BME280;40825;52.270;20.984;2022-12-05T13:10:10;101199.27;;;1.11;86.51
54924;BME280;40825;52.270;20.984;2022-12-05T13:12:38;101195.36;;;1.12;86.46
54924;BME280;40825;52.270;20.984;2022-12-05T13:15:37;101198.13;;;1.12;86.55
54924;BME280;40825;52.270;20.984;2022-12-05T13:18:09;101201.28;;;1.09;86.61
54924;BME280;40825;52.270;20.984;2022-12-05T13:20:38;101198.52;;;1.08;86.57
54924;BME280;40825;52.270;20.984;2022-12-05T13:23:04;101197.02;;;1.07;86.65
54924;BME280;40825;52.270;20.984;2022-12-05T13:25:34;101192.09;;;1.05;86.61
54924;BME280;40825;52.270;20.984;2022-12-05T13:28:05;101191.81;;;1.06;86.64
54924;BME280;40825;52.270;20.984;2022-12-05T13:30:34;101189.93;;;1.08;86.58
54924;BME280;40825;52.270;20.984;2022-12-05T13:33:21;101183.69;;;1.07;86.65
54924;BME280;40825;52.270;20.984;2022-12-05T13:35:54;101183.19;;;1.07;86.66
54924;BME280;40825;52.270;20.984;2022-12-05T13:38:41;101179.04;;;1.09;86.65
54924;BME280;40825;52.270;20.984;2022-12-05T13:41:49;101174.08;;;1.10;86.68
54924;BME280;40825;52.270;20.984;2022-12-05T13:44:43;101172.91;;;1.11;86.69
54924;BME280;40825;52.270;20.984;2022-12-05T13:47:32;101170.34;;;1.13;86.75
54924;BME280;40825;52.270;20.984;2022-12-05T13:50:07;101167.31;;;1.14;86.54
54924;BME280;40825;52.270;20.984;2022-12-05T13:52:45;101170.58;;;1.12;86.47
54924;BME280;40825;52.270;20.984;2022-12-05T13:57:57;101167.05;;;1.10;86.63
54924;BME280;40825;52.270;20.984;2022-12-05T14:02:58;101162.76;;;1.08;86.60
54924;BME280;40825;52.270;20.984;2022-12-05T14:05:39;101165.08;;;1.08;86.50
54924;BME280;40825;52.270;20.984;2022-12-05T14:15:52;101150.79;;;0.99;86.73
54924;BME280;40825;52.270;20.984;2022-12-05T14:21:18;101158.02;;;0.99;86.70
54924;BME280;40825;52.270;20.984;2022-12-05T14:24:26;101162.60;;;0.99;86.75
54924;BME280;40825;52.270;20.984;2022-12-05T14:27:19;101163.59;;;0.97;86.81
54924;BME280;40825;52.270;20.984;2022-12-05T14:30:03;101149.37;;;0.97;86.79
54924;BME280;40825;52.270;20.984;2022-12-05T14:32:38;101149.27;;;0.99;86.87
54924;BME280;40825;52.270;20.984;2022-12-05T14:37:52;101134.86;;;0.99;86.78
54924;BME280;40825;52.270;20.984;2022-12-05T14:43:06;101119.67;;;0.98;86.83
54924;BME280;40825;52.270;20.984;2022-12-05T14:50:48;101124.12;;;0.95;86.93
54924;BME280;40825;52.270;20.984;2022-12-05T14:56:12;101120.70;;;0.96;87.04
54924;BME280;40825;52.270;20.984;2022-12-05T14:58:44;101119.11;;;0.94;87.07
54924;BME280;40825;52.270;20.984;2022-12-05T15:01:34;101108.02;;;0.92;87.25
54924;BME280;40825;52.270;20.984;2022-12-05T15:06:52;101100.45;;;0.90;87.38
54924;BME280;40825;52.270;20.984;2022-12-05T15:11:53;101095.69;;;0.86;87.57
54924;BME280;40825;52.270;20.984;2022-12-05T15:14:22;101098.56;;;0.85;87.48
54924;BME280;40825;52.270;20.984;2022-12-05T15:16:52;101105.42;;;0.87;87.57